createdAt,value
2019-02-27T00:01:55.463Z,8.63
2019-02-27T00:04:25.091Z,8.75
2019-02-27T00:06:56.649Z,8.58
2019-02-27T00:09:26.226Z,8.30
2019-02-27T00:11:55.892Z,8.42
2019-02-27T00:14:25.476Z,8.16
2019-02-27T00:16:55.242Z,8.09
2019-02-27T00:19:24.846Z,8.46
2019-02-27T00:21:54.401Z,8.16
2019-02-27T00:24:24.017Z,8.73
2019-02-27T00:26:53.621Z,8.57
2019-02-27T00:29:23.246Z,8.37
2019-02-27T00:31:52.791Z,8.41
2019-02-27T00:34:22.378Z,8.71
2019-02-27T00:36:52.014Z,8.47
2019-02-27T00:39:22.488Z,8.26
2019-02-27T00:41:52.181Z,8.10
2019-02-27T00:44:21.789Z,7.95
2019-02-27T00:46:51.462Z,7.83
2019-02-27T00:49:21.038Z,8.05
2019-02-27T00:51:50.642Z,8.05
2019-02-27T00:54:20.257Z,7.89
2019-02-27T00:56:49.822Z,8.02
2019-02-27T00:59:19.428Z,7.89
2019-02-27T01:01:49.023Z,8.38
2019-02-27T01:04:18.581Z,8.08
2019-02-27T01:06:48.233Z,8.27
2019-02-27T01:09:17.901Z,7.93
2019-02-27T01:11:51.646Z,7.86
2019-02-27T01:14:18.819Z,7.88
2019-02-27T01:16:50.271Z,7.74
2019-02-27T01:19:19.774Z,7.70
2019-02-27T01:21:49.359Z,7.74
2019-02-27T01:24:18.972Z,7.83
2019-02-27T01:26:48.608Z,8.13
2019-02-27T01:29:18.775Z,7.76
2019-02-27T01:31:48.479Z,7.62
2019-02-27T01:34:18.087Z,7.87
2019-02-27T01:36:47.675Z,7.77
2019-02-27T01:39:17.255Z,7.56
2019-02-27T01:41:46.839Z,7.86
2019-02-27T01:44:16.487Z,7.71
2019-02-27T01:46:46.767Z,7.66
2019-02-27T01:49:16.818Z,7.59
2019-02-27T01:51:46.513Z,7.68
2019-02-27T01:54:16.097Z,7.50
2019-02-27T01:56:45.784Z,7.49
2019-02-27T01:59:16.878Z,7.62
2019-02-27T02:01:46.742Z,7.48
2019-02-27T02:04:20.075Z,7.51
2019-02-27T02:06:47.687Z,7.53
2019-02-27T02:09:33.909Z,7.72
2019-02-27T02:12:09.171Z,7.66
2019-02-27T02:15:15.332Z,7.44
2019-02-27T02:18:41.002Z,7.41
2019-02-27T02:21:23.873Z,7.56
2019-02-27T02:24:39.302Z,7.72
2019-02-27T02:27:47.334Z,7.48
2019-02-27T02:31:04.975Z,7.33
2019-02-27T02:34:11.441Z,7.59
2019-02-27T02:37:07.028Z,7.89
2019-02-27T02:40:12.140Z,7.92
2019-02-27T02:43:40.214Z,7.96
2019-02-27T02:46:14.035Z,7.73
2019-02-27T02:49:14.715Z,7.61
2019-02-27T02:52:26.964Z,7.36
2019-02-27T02:55:48.812Z,7.23
2019-02-27T02:58:48.378Z,7.43
2019-02-27T03:01:25.401Z,7.62
2019-02-27T03:04:27.267Z,7.52
2019-02-27T03:07:31.681Z,7.53
2019-02-27T03:10:08.789Z,7.92
2019-02-27T03:13:25.092Z,7.72
2019-02-27T03:16:06.261Z,7.50
2019-02-27T03:19:23.628Z,7.72
2019-02-27T03:22:12.667Z,7.59
2019-02-27T03:25:11.069Z,7.74
2019-02-27T03:28:19.970Z,7.71
2019-02-27T03:31:18.053Z,7.71
2019-02-27T03:34:47.989Z,7.90
2019-02-27T03:37:27.705Z,7.72
2019-02-27T03:40:22.641Z,7.77
2019-02-27T03:43:28.183Z,7.48
2019-02-27T03:46:47.961Z,7.20
2019-02-27T03:50:01.292Z,6.93
2019-02-27T03:52:54.609Z,6.85
2019-02-27T03:55:55.588Z,6.70
2019-02-27T03:59:06.327Z,6.61
2019-02-27T04:02:12.093Z,6.68
2019-02-27T04:05:13.312Z,6.82
2019-02-27T04:08:23.607Z,7.00
2019-02-27T04:10:53.292Z,6.81
2019-02-27T04:13:26.832Z,7.06
2019-02-27T04:15:54.456Z,7.32
2019-02-27T04:18:27.498Z,6.95
2019-02-27T04:20:53.414Z,6.73
2019-02-27T04:23:23.061Z,6.66
2019-02-27T04:25:54.724Z,6.66
2019-02-27T04:28:24.061Z,6.67
2019-02-27T04:30:53.638Z,6.67
2019-02-27T04:33:24.303Z,6.98
2019-02-27T04:35:53.884Z,6.97
2019-02-27T04:38:25.033Z,7.10
2019-02-27T04:40:54.863Z,7.39
2019-02-27T04:43:24.451Z,7.24
2019-02-27T04:45:54.138Z,7.83
2019-02-27T04:48:23.738Z,7.80
2019-02-27T04:50:53.355Z,7.51
2019-02-27T04:53:22.971Z,7.83
2019-02-27T04:55:52.589Z,7.49
2019-02-27T04:58:22.161Z,8.14
2019-02-27T05:00:51.756Z,8.35
2019-02-27T05:03:21.380Z,8.42
2019-02-27T05:05:51.011Z,8.54
2019-02-27T05:08:20.586Z,8.56
2019-02-27T05:10:50.204Z,8.93
2019-02-27T05:13:20.899Z,8.11
2019-02-27T05:15:50.948Z,8.23
2019-02-27T05:18:20.581Z,8.13
2019-02-27T05:20:50.154Z,8.52
2019-02-27T05:23:19.728Z,8.42
2019-02-27T05:25:49.408Z,8.22
2019-02-27T05:28:19.077Z,7.68
2019-02-27T05:30:48.772Z,8.21
2019-02-27T05:33:18.368Z,8.08
2019-02-27T05:35:47.986Z,8.00
2019-02-27T05:38:17.614Z,7.82
2019-02-27T05:40:47.219Z,7.65
2019-02-27T05:43:16.843Z,7.61
2019-02-27T05:45:46.445Z,7.42
2019-02-27T05:48:19.877Z,7.66
2019-02-27T05:50:47.422Z,7.91
2019-02-27T05:53:17.010Z,8.20
2019-02-27T05:55:46.649Z,8.30
2019-02-27T05:58:16.254Z,8.26
2019-02-27T06:00:45.910Z,8.74
2019-02-27T06:03:15.961Z,7.87
2019-02-27T06:05:49.515Z,8.21
2019-02-27T06:08:18.494Z,8.04
2019-02-27T06:10:48.143Z,7.99
2019-02-27T06:13:17.750Z,7.86
2019-02-27T06:15:49.145Z,7.98
2019-02-27T06:18:22.478Z,7.96
2019-02-27T06:20:50.303Z,8.20
2019-02-27T06:23:19.995Z,7.98
2019-02-27T06:25:49.659Z,8.72
2019-02-27T06:28:19.439Z,9.09
2019-02-27T06:30:49.015Z,9.07
2019-02-27T06:33:18.666Z,8.48
2019-02-27T06:35:49.452Z,8.14
2019-02-27T06:38:19.404Z,7.67
2019-02-27T06:40:49.134Z,7.32
2019-02-27T06:43:19.102Z,7.19
2019-02-27T06:45:48.958Z,7.28
2019-02-27T06:48:18.649Z,7.41
2019-02-27T06:50:48.393Z,7.60
2019-02-27T06:53:18.183Z,8.35
2019-02-27T06:55:47.899Z,8.53
2019-02-27T06:58:17.535Z,8.29
2019-02-27T07:00:47.319Z,8.49
2019-02-27T07:03:17.000Z,9.05
2019-02-27T07:05:48.124Z,8.82
2019-02-27T07:08:18.397Z,9.27
2019-02-27T07:10:48.052Z,9.27
2019-02-27T07:13:17.677Z,8.61
2019-02-27T07:15:48.301Z,8.61
2019-02-27T07:18:18.568Z,9.04
2019-02-27T07:20:48.209Z,8.57
2019-02-27T07:23:22.608Z,9.01
2019-02-27T07:25:50.141Z,8.30
2019-02-27T07:28:20.084Z,8.73
2019-02-27T07:30:49.712Z,8.62
2019-02-27T07:33:19.767Z,8.36
2019-02-27T07:35:49.430Z,8.49
2019-02-27T07:38:21.568Z,8.36
2019-02-27T07:40:51.102Z,8.10
2019-02-27T07:43:21.020Z,8.23
2019-02-27T07:45:50.592Z,8.29
2019-02-27T07:48:20.394Z,7.97
2019-02-27T07:50:50.308Z,8.52
2019-02-27T07:53:21.433Z,8.28
2019-02-27T07:55:51.072Z,8.25
2019-02-27T07:58:20.725Z,8.50
2019-02-27T08:00:50.799Z,7.93
2019-02-27T08:03:20.921Z,8.39
2019-02-27T08:05:50.592Z,8.19
2019-02-27T08:08:23.231Z,8.06
2019-02-27T08:10:51.774Z,8.43
2019-02-27T08:13:21.424Z,8.29
2019-02-27T08:15:51.064Z,8.35
2019-02-27T08:18:29.818Z,8.08
2019-02-27T08:20:54.373Z,7.86
2019-02-27T08:23:23.789Z,7.85
2019-02-27T08:25:54.919Z,7.80
2019-02-27T08:28:24.515Z,7.80
2019-02-27T08:30:54.262Z,7.95
2019-02-27T08:33:23.890Z,8.15
2019-02-27T08:35:53.539Z,8.15
2019-02-27T08:38:23.741Z,8.07
2019-02-27T08:40:57.546Z,8.02
2019-02-27T08:43:24.823Z,8.59
2019-02-27T08:45:54.473Z,8.53
2019-02-27T08:48:24.080Z,8.51
2019-02-27T08:50:53.684Z,8.34
2019-02-27T08:53:26.793Z,8.27
2019-02-27T08:55:54.703Z,8.47
2019-02-27T08:58:26.761Z,8.85
2019-02-27T09:00:55.671Z,8.84
2019-02-27T09:03:25.402Z,9.08
2019-02-27T09:05:55.023Z,8.86
2019-02-27T09:08:24.636Z,8.72
2019-02-27T09:10:54.354Z,8.60
2019-02-27T09:13:23.938Z,9.07
2019-02-27T09:15:53.840Z,8.87
2019-02-27T09:18:23.753Z,8.94
2019-02-27T09:20:54.215Z,8.37
2019-02-27T09:23:23.936Z,8.45
2019-02-27T09:25:57.421Z,8.65
2019-02-27T09:28:26.582Z,8.75
2019-02-27T09:30:56.152Z,8.77
2019-02-27T09:33:27.260Z,9.45
2019-02-27T09:35:56.896Z,9.08
2019-02-27T09:38:26.497Z,9.14
2019-02-27T09:40:56.165Z,9.44
2019-02-27T11:05:40.192Z,6.69
2019-02-27T11:08:09.981Z,6.78
2019-02-27T11:10:39.856Z,6.65
2019-02-27T11:13:09.460Z,6.83
2019-02-27T11:15:41.441Z,6.75
2019-02-27T11:18:10.734Z,6.69
2019-02-27T11:20:40.403Z,6.89
2019-02-27T11:23:10.182Z,6.95
2019-02-27T11:25:39.839Z,6.97
2019-02-27T11:28:09.423Z,6.98
2019-02-27T11:30:40.763Z,7.02
2019-02-27T11:33:10.605Z,7.06
2019-02-27T11:35:40.235Z,6.91
2019-02-27T11:38:09.983Z,6.95
2019-02-27T11:40:42.607Z,7.10
2019-02-27T11:43:11.048Z,6.88
2019-02-27T11:45:40.707Z,7.20
2019-02-27T11:48:10.365Z,7.19
2019-02-27T11:50:40.060Z,7.07
2019-02-27T11:53:09.734Z,6.91
2019-02-27T11:55:39.379Z,6.92
2019-02-27T11:58:09.028Z,6.71
2019-02-27T12:00:39.374Z,6.55
2019-02-27T12:03:11.161Z,6.37
2019-02-27T12:05:40.500Z,6.28
2019-02-27T12:08:11.406Z,6.46
2019-02-27T12:10:41.091Z,6.51
2019-02-27T12:13:10.715Z,6.49
2019-02-27T12:15:43.363Z,6.57
2019-02-27T12:18:11.988Z,6.69
2019-02-27T12:20:41.667Z,6.68
2019-02-27T12:23:11.287Z,6.80
2019-02-27T12:25:41.064Z,6.94
2019-02-27T12:28:11.090Z,7.10
2019-02-27T12:30:40.824Z,6.95
2019-02-27T12:33:10.717Z,6.97
2019-02-27T12:35:44.213Z,7.21
2019-02-27T12:38:11.763Z,7.34
2019-02-27T12:40:41.335Z,7.46
2019-02-27T12:43:11.021Z,7.36
2019-02-27T12:45:40.711Z,7.29
2019-02-27T12:48:12.558Z,7.19
2019-02-27T12:50:45.115Z,7.14
2019-02-27T12:53:14.742Z,7.09
2019-02-27T12:55:44.300Z,7.45
2019-02-27T12:58:14.139Z,7.68
2019-02-27T13:00:43.748Z,8.16
2019-02-27T13:03:13.431Z,7.82
2019-02-27T13:05:43.889Z,7.77
2019-02-27T13:08:13.536Z,7.64
2019-02-27T13:10:43.164Z,7.68
2019-02-27T13:13:12.856Z,8.06
2019-02-27T13:15:42.534Z,8.07
2019-02-27T13:18:12.205Z,8.05
2019-02-27T13:20:43.060Z,7.79
2019-02-27T13:23:13.288Z,7.75
2019-02-27T13:25:43.060Z,8.33
2019-02-27T13:28:14.582Z,8.58
2019-02-27T13:30:44.742Z,8.44
2019-02-27T13:33:14.370Z,8.15
2019-02-27T13:35:43.985Z,8.37
2019-02-27T13:38:17.465Z,8.47
2019-02-27T13:40:45.140Z,8.10
2019-02-27T13:43:14.767Z,7.99
2019-02-27T13:45:47.302Z,8.02
2019-02-27T13:48:15.899Z,8.25
2019-02-27T13:50:45.695Z,8.55
2019-02-27T13:53:15.411Z,8.81
2019-02-27T13:55:48.119Z,9.11
2019-02-27T13:58:16.913Z,9.24
2019-02-27T14:00:46.596Z,9.48
2019-02-27T14:03:16.421Z,9.82
2019-02-27T14:05:46.273Z,9.72
2019-02-27T14:08:15.999Z,9.59
2019-02-27T14:10:46.081Z,9.79
2019-02-27T14:13:15.690Z,9.79
2019-02-27T14:15:45.344Z,9.65
2019-02-27T14:18:16.126Z,10.10
2019-02-27T14:20:46.323Z,10.40
2019-02-27T14:23:15.915Z,10.85
2019-02-27T14:25:46.831Z,11.07
2019-02-27T14:28:18.369Z,11.08
2019-02-27T14:30:48.092Z,11.44
2019-02-27T14:33:19.318Z,11.43
2019-02-27T14:35:49.097Z,10.70
2019-02-27T14:38:21.895Z,11.07
2019-02-27T14:40:50.088Z,11.08
2019-02-27T14:43:19.702Z,11.68
2019-02-27T14:45:50.838Z,11.79
2019-02-27T14:48:21.581Z,11.14
2019-02-27T14:50:51.896Z,11.23
2019-02-27T14:53:21.493Z,11.45
2019-02-27T14:55:51.594Z,11.18
2019-02-27T14:58:24.023Z,11.37
2019-02-27T15:00:52.495Z,11.09
2019-02-27T15:03:22.116Z,11.59
2019-02-27T15:05:52.244Z,11.26
2019-02-27T15:08:21.830Z,11.45
2019-02-27T15:10:51.485Z,11.39
2019-02-27T15:13:21.132Z,10.93
2019-02-27T15:15:50.759Z,11.05
2019-02-27T15:18:22.497Z,11.50
2019-02-27T15:20:51.821Z,10.97
2019-02-27T15:23:24.477Z,11.25
2019-02-27T15:25:53.948Z,11.25
2019-02-27T15:28:23.608Z,11.20
2019-02-27T15:30:53.175Z,10.76
2019-02-27T15:33:22.901Z,11.20
2019-02-27T15:35:55.125Z,11.12
2019-02-27T15:38:23.988Z,10.86
2019-02-27T15:40:53.601Z,11.08
2019-02-27T15:43:23.208Z,11.12
2019-02-27T15:45:52.842Z,10.31
2019-02-27T15:48:22.470Z,9.27
2019-02-27T15:50:56.581Z,9.14
2019-02-27T15:53:23.408Z,8.84
2019-02-27T15:55:53.034Z,8.89
2019-02-27T15:58:25.301Z,8.64
2019-02-27T16:00:54.078Z,8.51
2019-02-27T16:03:23.681Z,8.59
2019-02-27T16:05:53.299Z,8.71
2019-02-27T16:08:23.584Z,8.70
2019-02-27T16:10:55.281Z,8.48
2019-02-27T16:13:25.094Z,8.34
2019-02-27T16:15:54.767Z,8.31
2019-02-27T16:18:24.403Z,8.36
2019-02-27T16:20:53.984Z,7.88
2019-02-27T16:23:23.753Z,7.90
2019-02-27T16:25:56.650Z,7.56
2019-02-27T16:28:26.275Z,7.44
2019-02-27T16:30:55.938Z,7.48
2019-02-27T16:33:25.647Z,7.75
2019-02-27T16:35:55.295Z,7.70
2019-02-27T16:38:28.356Z,7.30
2019-02-27T16:40:58.031Z,7.20
2019-02-27T16:43:27.609Z,7.46
2019-02-27T16:45:57.283Z,7.67
2019-02-27T16:48:26.976Z,7.27
2019-02-27T16:50:57.415Z,7.50
2019-02-27T16:53:27.994Z,7.42
2019-02-27T16:55:57.619Z,7.56
2019-02-27T16:58:32.662Z,7.53
2019-02-27T17:00:59.206Z,7.22
2019-02-27T17:03:28.893Z,7.24
2019-02-27T17:05:59.234Z,7.18
2019-02-27T17:08:28.943Z,6.91
2019-02-27T17:10:59.722Z,6.80
2019-02-27T17:13:29.409Z,6.94
2019-02-27T17:15:59.009Z,6.94
2019-02-27T17:18:29.311Z,6.80
2019-02-27T17:20:59.063Z,6.81
2019-02-27T17:23:28.653Z,6.96
2019-02-27T17:26:03.389Z,7.06
2019-02-27T17:28:29.878Z,6.84
2019-02-27T17:31:01.749Z,6.81
2019-02-27T17:33:31.591Z,6.62
2019-02-27T17:36:01.334Z,6.64
2019-02-27T17:38:30.948Z,6.55
2019-02-27T17:41:00.600Z,6.65
2019-02-27T17:43:30.271Z,6.53
2019-02-27T17:45:59.947Z,6.45
2019-02-27T17:48:29.610Z,6.49
2019-02-27T17:50:59.311Z,6.35
2019-02-27T17:53:28.893Z,6.21
2019-02-27T17:55:58.630Z,6.27
2019-02-27T17:58:31.912Z,6.42
2019-02-27T18:01:02.344Z,6.42
2019-02-27T18:03:31.938Z,6.59
2019-02-27T18:06:01.596Z,6.87
2019-02-27T18:08:31.234Z,6.96
2019-02-27T18:11:00.918Z,6.84
2019-02-27T18:13:35.291Z,6.72
2019-02-27T18:16:01.944Z,6.86
2019-02-27T18:18:31.704Z,6.81
2019-02-27T18:21:01.361Z,6.62
2019-02-27T18:23:30.968Z,7.09
2019-02-27T18:26:00.745Z,7.04
2019-02-27T18:28:32.878Z,6.54
2019-02-27T18:31:02.113Z,6.39
2019-02-27T18:33:31.854Z,6.34
2019-02-27T18:36:04.780Z,6.51
2019-02-27T18:38:34.543Z,6.42
2019-02-27T18:41:04.245Z,6.43
2019-02-27T18:43:33.815Z,6.44
2019-02-27T18:46:03.503Z,6.40
2019-02-27T18:48:33.142Z,6.31
2019-02-27T18:51:02.871Z,6.51
2019-02-27T18:53:32.485Z,6.44
2019-02-27T18:56:02.780Z,6.34
2019-02-27T18:58:32.453Z,6.16
2019-02-27T19:01:02.110Z,6.01
2019-02-27T19:03:31.738Z,6.06
2019-02-27T19:06:01.356Z,6.11
2019-02-27T19:08:31.163Z,6.00
2019-02-27T19:11:00.944Z,6.06
2019-02-27T19:13:31.718Z,5.94
2019-02-27T19:16:02.296Z,5.89
2019-02-27T19:18:32.023Z,5.95
2019-02-27T19:21:02.748Z,6.08
2019-02-27T19:23:32.575Z,6.21
2019-02-27T19:26:02.746Z,6.30
2019-02-27T19:28:32.371Z,6.16
2019-02-27T19:31:02.152Z,6.25
2019-02-27T19:33:32.504Z,6.15
2019-02-27T19:36:03.589Z,6.29
2019-02-27T19:38:33.333Z,6.27
2019-02-27T19:41:04.059Z,6.34
2019-02-27T19:43:34.510Z,6.38
2019-02-27T19:46:06.969Z,6.43
2019-02-27T19:48:35.827Z,6.42
2019-02-27T19:51:05.675Z,6.39
2019-02-27T19:53:39.385Z,6.46
2019-02-27T19:56:06.741Z,6.40
2019-02-27T19:58:36.552Z,6.50
2019-02-27T20:01:08.707Z,6.41
2019-02-27T20:03:37.607Z,6.57
2019-02-27T20:06:07.667Z,6.67
2019-02-27T20:08:37.398Z,6.96
2019-02-27T20:11:07.383Z,6.75
2019-02-27T20:13:37.069Z,7.11
2019-02-27T20:16:07.154Z,7.13
2019-02-27T20:18:36.871Z,6.82
2019-02-27T20:21:06.763Z,7.13
2019-02-27T20:23:36.642Z,7.32
2019-02-27T20:26:13.845Z,7.24
2019-02-27T20:28:37.851Z,7.09
2019-02-27T20:31:07.691Z,6.86
2019-02-27T20:33:38.017Z,6.70
2019-02-27T20:36:07.817Z,6.66
2019-02-27T20:38:37.446Z,6.70
2019-02-27T20:41:07.420Z,6.79
2019-02-27T20:43:36.992Z,6.84
2019-02-27T20:46:06.791Z,6.89
2019-02-27T20:48:39.526Z,7.22
2019-02-27T20:51:07.456Z,7.36
2019-02-27T20:53:37.145Z,7.00
2019-02-27T20:56:06.733Z,7.17
2019-02-27T20:58:36.443Z,7.27
2019-02-27T21:01:10.044Z,7.18
2019-02-27T21:03:37.613Z,6.98
2019-02-27T21:06:12.774Z,7.09
2019-02-27T21:08:40.814Z,7.28
2019-02-27T21:11:10.398Z,7.15
2019-02-27T21:13:40.042Z,7.29
2019-02-27T21:16:10.232Z,7.24
2019-02-27T21:18:40.335Z,7.43
2019-02-27T21:21:10.080Z,7.59
2019-02-27T21:23:39.739Z,7.56
2019-02-27T21:26:09.452Z,7.49
2019-02-27T21:28:39.147Z,7.80
2019-02-27T21:31:08.731Z,7.91
2019-02-27T21:33:38.313Z,7.70
2019-02-27T21:36:08.088Z,7.41
2019-02-27T21:38:37.657Z,7.45
2019-02-27T21:41:11.346Z,7.35
2019-02-27T21:43:40.000Z,7.50
2019-02-27T21:46:11.726Z,7.82
2019-02-27T21:48:41.355Z,7.70
2019-02-27T21:51:13.580Z,7.95
2019-02-27T21:53:42.351Z,7.94
2019-02-27T21:56:12.022Z,7.79
2019-02-27T21:58:41.728Z,7.98
2019-02-27T22:01:12.923Z,8.06
2019-02-27T22:03:42.620Z,8.11
2019-02-27T22:06:14.366Z,7.94
2019-02-27T22:08:44.014Z,7.93
2019-02-27T22:11:13.688Z,8.21
2019-02-27T22:13:45.403Z,7.94
2019-02-27T22:16:14.817Z,7.99
2019-02-27T22:18:47.136Z,8.12
2019-02-27T22:21:15.813Z,7.93
2019-02-27T22:23:46.007Z,8.28
2019-02-27T22:26:15.716Z,8.14
2019-02-27T22:28:45.368Z,8.05
2019-02-27T22:31:14.978Z,8.06
2019-02-27T22:33:44.587Z,7.95
2019-02-27T22:36:14.340Z,8.11
2019-02-27T22:38:43.953Z,8.09
2019-02-27T22:41:13.675Z,8.14
2019-02-27T22:43:43.364Z,8.09
2019-02-27T22:46:13.720Z,8.04
2019-02-27T22:48:44.470Z,8.08
2019-02-27T22:51:14.180Z,7.99
2019-02-27T22:53:43.850Z,8.14
2019-02-27T22:58:51.667Z,8.01
2019-02-27T23:01:34.902Z,7.93
2019-02-27T23:04:06.823Z,8.17
2019-02-27T23:06:36.575Z,7.98
2019-02-27T23:09:12.945Z,7.98
2019-02-27T23:11:43.037Z,7.86
2019-02-27T23:14:12.866Z,7.82
2019-02-27T23:16:42.488Z,7.81
2019-02-27T23:19:13.108Z,7.94
2019-02-27T23:21:43.095Z,7.78
2019-02-27T23:24:13.176Z,7.78
2019-02-27T23:26:42.802Z,7.88
2019-02-27T23:29:12.411Z,7.79
2019-02-27T23:31:42.273Z,7.76
2019-02-27T23:34:11.975Z,7.74
2019-02-27T23:36:41.706Z,7.80
2019-02-27T23:39:11.423Z,7.78
2019-02-27T23:41:41.071Z,7.66
2019-02-27T23:44:12.198Z,7.72
2019-02-27T23:46:48.712Z,7.64
2019-02-27T23:49:13.280Z,7.59
2019-02-27T23:51:42.877Z,7.59
2019-02-27T23:54:12.490Z,7.73
2019-02-27T23:56:42.189Z,7.61
2019-02-27T23:59:11.777Z,7.78
